Time;durP1;ratioP1;P1;durP2;ratioP2;P2;SDS_P1;SDS_P2;PMS_P1;PMS_P2;Temp;Humidity;BMP_temperature;BMP_pressure;BME280_temperature;BME280_humidity;BME280_pressure;Samples;Min_cycle;Max_cycle;Signal;HPM_P1;HPM_P2
2022/06/01 00:00:44;;;;;;;9.40;2.75;;;14.00;99.90;;;;;;4977179;28;20391;-68
2022/06/01 00:03:10;;;;;;;6.97;3.22;;;14.10;99.90;;;;;;4977093;28;20046;-63
2022/06/01 00:05:36;;;;;;;6.63;2.70;;;14.20;99.90;;;;;;4977114;28;20057;-68
2022/06/01 00:08:03;;;;;;;5.70;2.22;;;14.30;99.90;;;;;;4976818;28;20060;-65
2022/06/01 00:10:29;;;;;;;9.60;3.00;;;14.40;99.90;;;;;;4976963;28;20047;-67
2022/06/01 00:12:55;;;;;;;4.78;2.88;;;14.30;99.90;;;;;;4976997;28;20034;-70
2022/06/01 00:15:23;;;;;;;5.30;2.95;;;14.20;99.90;;;;;;4976713;28;20055;-66
2022/06/01 00:17:49;;;;;;;2.95;2.25;;;14.30;99.90;;;;;;4976739;28;20050;-63
2022/06/01 00:20:14;;;;;;;4.35;2.33;;;14.00;99.90;;;;;;4976726;28;20126;-70
2022/06/01 00:22:42;;;;;;;6.78;3.20;;;13.90;99.90;;;;;;4976707;28;20533;-70
2022/06/01 00:25:08;;;;;;;4.95;2.47;;;13.70;99.90;;;;;;4976792;28;20507;-63
2022/06/01 00:27:36;;;;;;;5.35;2.92;;;13.40;99.90;;;;;;4976638;28;20665;-65
2022/06/01 00:30:05;;;;;;;4.47;2.53;;;13.30;99.90;;;;;;4976125;28;20422;-66
2022/06/01 00:32:31;;;;;;;9.70;3.03;;;13.20;99.90;;;;;;4976335;28;20379;-63
2022/06/01 00:35:00;;;;;;;4.93;2.70;;;13.30;99.90;;;;;;4976032;28;20041;-64
2022/06/01 00:37:35;;;;;;;6.18;3.08;;;13.30;99.90;;;;;;4976516;28;20057;-63
2022/06/01 00:40:07;;;;;;;4.40;2.83;;;13.60;99.90;;;;;;4976449;28;20053;-62
2022/06/01 00:42:39;;;;;;;5.78;2.58;;;13.60;99.90;;;;;;4976284;28;20070;-64
2022/06/01 00:45:10;;;;;;;5.45;2.60;;;13.60;99.90;;;;;;4975237;28;20055;-62
2022/06/01 00:47:38;;;;;;;;;;;13.70;99.90;;;;;;4976669;28;20078;-62
2022/06/01 00:50:15;;;;;;;5.85;3.33;;;13.60;99.90;;;;;;4974908;28;19914;-63
2022/06/01 00:53:12;;;;;;;5.47;2.50;;;13.50;99.90;;;;;;4973274;28;20051;-63
2022/06/01 00:55:50;;;;;;;5.65;2.55;;;13.50;99.90;;;;;;4973713;28;20451;-63
2022/06/01 00:58:20;;;;;;;5.00;2.95;;;13.40;99.90;;;;;;4975873;28;20426;-62
2022/06/01 01:00:50;;;;;;;4.65;2.60;;;13.30;99.90;;;;;;4976215;28;20570;-63
2022/06/01 01:03:19;;;;;;;7.15;3.05;;;13.30;99.90;;;;;;4975760;28;20109;-65
2022/06/01 01:05:53;;;;;;;7.13;2.90;;;13.40;99.90;;;;;;4975984;28;20414;-69
2022/06/01 01:08:19;;;;;;;5.65;2.90;;;13.50;99.90;;;;;;4975988;28;20407;-69
2022/06/01 01:10:45;;;;;;;4.57;2.35;;;13.50;99.90;;;;;;4975736;28;20039;-69
2022/06/01 01:13:14;;;;;;;10.23;3.15;;;13.60;99.90;;;;;;4975628;28;20136;-67
2022/06/01 01:15:45;;;;;;;4.43;2.53;;;13.60;99.90;;;;;;4975808;28;20071;-70
2022/06/01 01:18:17;;;;;;;5.28;2.50;;;13.40;99.90;;;;;;4975808;28;20041;-70
2022/06/01 01:21:09;;;;;;;7.95;2.70;;;13.40;99.90;;;;;;4975802;28;20046;-70
2022/06/01 01:23:53;;;;;;;5.60;2.83;;;13.40;99.90;;;;;;4975810;28;20039;-64
2022/06/01 01:26:21;;;;;;;9.70;3.13;;;13.50;99.90;;;;;;4975560;28;20058;-70
2022/06/01 01:28:47;;;;;;;8.68;3.58;;;13.50;99.90;;;;;;4975500;28;20096;-64
2022/06/01 01:31:22;;;;;;;4.38;2.60;;;13.60;99.90;;;;;;4975275;28;20139;-69
2022/06/01 01:33:50;;;;;;;8.20;3.00;;;13.60;99.90;;;;;;4974958;28;20043;-70
2022/06/01 01:36:20;;;;;;;5.43;2.55;;;13.70;99.90;;;;;;4975534;28;20047;-68
2022/06/01 01:38:50;;;;;;;6.72;3.15;;;13.70;99.90;;;;;;4975389;28;20046;-67
2022/06/01 01:41:42;;;;;;;5.40;2.70;;;13.60;99.90;;;;;;4974905;28;20039;-69
2022/06/01 01:44:18;;;;;;;4.05;2.60;;;13.60;99.90;;;;;;4975328;28;20047;-67
2022/06/01 01:46:47;;;;;;;4.30;2.85;;;13.20;99.90;;;;;;4975109;28;20047;-65
2022/06/01 01:49:45;;;;;;;3.38;2.78;;;13.00;99.90;;;;;;4975029;28;20049;-71
2022/06/01 01:52:16;;;;;;;4.80;2.92;;;12.90;99.90;;;;;;4942550;28;20038;-70
2022/06/01 01:55:06;;;;;;;4.85;2.50;;;12.90;99.90;;;;;;4975182;28;20113;-71
2022/06/01 01:58:20;;;;;;;3.95;2.75;;;12.80;99.90;;;;;;4975013;28;20522;-64
2022/06/01 02:00:52;;;;;;;6.60;2.80;;;12.70;99.90;;;;;;4922236;28;20044;-70
2022/06/01 02:03:31;;;;;;;6.25;2.80;;;12.70;99.90;;;;;;4974915;28;20035;-70
2022/06/01 02:06:12;;;;;;;6.15;2.85;;;12.80;99.90;;;;;;4974672;28;20082;-65
2022/06/01 02:08:46;;;;;;;6.55;2.85;;;12.90;99.90;;;;;;4974553;28;20117;-64
2022/06/01 02:14:36;;;;;;;6.18;3.08;;;13.00;99.90;;;;;;4974764;28;20118;-64
2022/06/01 02:17:02;;;;;;;5.50;2.80;;;13.00;99.90;;;;;;4974749;28;20046;-70
2022/06/01 02:19:38;;;;;;;7.13;2.78;;;12.80;99.90;;;;;;4974654;28;20398;-65
2022/06/01 02:22:05;;;;;;;10.68;2.70;;;12.70;99.90;;;;;;4974421;28;20430;-70
2022/06/01 02:24:31;;;;;;;3.65;2.63;;;12.80;99.90;;;;;;4974345;28;20034;-68
2022/06/01 02:26:58;;;;;;;5.53;3.00;;;12.80;99.90;;;;;;4974382;28;20077;-67
2022/06/01 02:30:12;;;;;;;6.03;2.90;;;13.00;99.90;;;;;;4974380;28;20130;-68
2022/06/01 02:32:40;;;;;;;4.60;2.72;;;13.10;99.90;;;;;;4960656;28;20042;-71
2022/06/01 02:35:08;;;;;;;5.30;2.75;;;13.00;99.90;;;;;;4974384;28;20046;-70
2022/06/01 02:37:39;;;;;;;7.03;3.05;;;12.90;99.90;;;;;;4974356;28;20121;-71
2022/06/01 02:40:09;;;;;;;7.18;2.75;;;12.90;99.90;;;;;;4974535;28;20092;-66
2022/06/01 02:42:46;;;;;;;4.85;2.80;;;13.10;99.90;;;;;;4974469;28;20545;-66
2022/06/01 02:45:14;;;;;;;7.18;2.55;;;13.20;99.90;;;;;;4974368;28;20035;-71
2022/06/01 02:47:43;;;;;;;4.38;2.67;;;13.30;99.90;;;;;;4973690;28;20124;-67
2022/06/01 02:50:16;;;;;;;5.85;3.08;;;13.30;99.90;;;;;;4974361;28;20473;-70
2022/06/01 02:52:43;;;;;;;6.72;2.70;;;13.30;99.90;;;;;;4974174;28;20046;-63
2022/06/01 02:55:09;;;;;;;3.85;2.78;;;13.30;99.90;;;;;;4974137;28;20037;-64
2022/06/01 02:57:38;;;;;;;5.25;2.45;;;13.10;99.90;;;;;;4973966;28;20035;-63
2022/06/01 03:00:07;;;;;;;3.25;2.60;;;13.00;99.90;;;;;;4973826;28;20058;-67
2022/06/01 03:02:40;;;;;;;7.50;3.00;;;12.90;99.90;;;;;;4973767;28;20047;-63
2022/06/01 03:05:07;;;;;;;5.47;2.65;;;13.00;99.90;;;;;;4973993;28;20051;-67
2022/06/01 03:07:33;;;;;;;3.10;2.60;;;12.90;99.90;;;;;;4973947;28;20062;-64
2022/06/01 03:09:59;;;;;;;4.93;2.88;;;12.90;99.90;;;;;;4974038;28;20035;-63
2022/06/01 03:12:25;;;;;;;5.65;2.50;;;12.90;99.90;;;;;;4974110;28;20130;-64
2022/06/01 03:14:51;;;;;;;4.47;2.85;;;12.90;99.90;;;;;;4974137;28;20038;-70
2022/06/01 03:17:16;;;;;;;3.60;2.45;;;12.90;99.90;;;;;;4974065;28;20078;-64
2022/06/01 03:19:42;;;;;;;6.25;2.47;;;13.00;99.90;;;;;;4974119;28;20050;-71
2022/06/01 03:22:08;;;;;;;5.18;2.95;;;13.10;99.90;;;;;;4974020;28;20051;-70
2022/06/01 03:24:34;;;;;;;4.65;2.50;;;13.10;99.90;;;;;;4974005;28;20039;-69
2022/06/01 03:27:00;;;;;;;5.18;3.13;;;12.90;99.90;;;;;;4973652;28;20150;-66
2022/06/01 03:29:26;;;;;;;7.97;2.65;;;12.80;99.90;;;;;;4973854;28;20568;-69
2022/06/01 03:31:52;;;;;;;4.68;2.53;;;12.80;99.90;;;;;;4973931;28;20069;-65
2022/06/01 03:34:19;;;;;;;6.95;2.65;;;12.90;99.90;;;;;;4973643;28;20039;-67
2022/06/01 03:36:46;;;;;;;4.18;2.38;;;13.00;99.90;;;;;;4973836;28;20034;-63
2022/06/01 03:39:11;;;;;;;6.57;2.78;;;13.00;99.90;;;;;;4973516;28;20047;-63
2022/06/01 03:41:37;;;;;;;6.63;3.08;;;13.10;99.90;;;;;;4973431;28;20051;-63
2022/06/01 03:46:52;;;;;;;5.15;2.85;;;13.10;99.90;;;;;;4973653;28;20069;-64
2022/06/01 03:49:18;;;;;;;5.68;3.00;;;13.10;99.90;;;;;;4973662;28;20134;-63
2022/06/01 03:51:44;;;;;;;3.17;2.60;;;13.20;99.90;;;;;;4973725;28;20046;-69
2022/06/01 03:54:10;;;;;;;7.78;2.70;;;13.20;99.90;;;;;;4973499;28;20133;-70
2022/06/01 03:56:36;;;;;;;7.53;3.22;;;13.20;99.90;;;;;;4973691;28;20039;-70
2022/06/01 03:59:02;;;;;;;4.95;3.10;;;13.10;99.90;;;;;;4973662;28;20050;-66
2022/06/01 04:01:28;;;;;;;4.13;2.80;;;13.00;99.90;;;;;;4973716;28;20051;-65
2022/06/01 04:03:53;;;;;;;10.15;2.90;;;12.90;99.90;;;;;;4973585;28;20046;-66
2022/06/01 04:06:19;;;;;;;3.05;2.45;;;13.00;99.90;;;;;;4976435;28;20046;-63
2022/06/01 04:08:45;;;;;;;3.40;2.38;;;12.90;99.90;;;;;;4977044;28;20094;-67
2022/06/01 04:11:11;;;;;;;6.75;3.28;;;13.00;99.90;;;;;;4976778;28;20042;-68
2022/06/01 04:13:37;;;;;;;4.43;2.42;;;13.20;99.90;;;;;;4976740;28;20058;-65
2022/06/01 04:16:03;;;;;;;6.80;3.05;;;13.30;99.90;;;;;;4976857;28;20515;-64
2022/06/01 04:18:29;;;;;;;4.63;3.17;;;13.30;99.90;;;;;;4976747;28;20046;-64
2022/06/01 04:20:55;;;;;;;7.32;2.97;;;13.20;99.90;;;;;;4976866;28;20038;-70
2022/06/01 04:23:21;;;;;;;9.25;3.45;;;13.20;99.90;;;;;;4976755;28;20027;-68
2022/06/01 04:25:48;;;;;;;4.03;3.08;;;13.30;99.90;;;;;;4976682;28;20043;-65
2022/06/01 04:28:14;;;;;;;5.32;2.60;;;13.30;99.90;;;;;;4976587;28;20054;-69
2022/06/01 04:30:40;;;;;;;6.47;2.53;;;13.30;99.90;;;;;;4976607;28;20027;-63
2022/06/01 04:33:06;;;;;;;6.35;2.53;;;13.40;99.90;;;;;;4976726;28;20046;-65
2022/06/01 04:35:32;;;;;;;7.28;2.63;;;13.30;99.90;;;;;;4976262;28;20491;-70
2022/06/01 04:38:12;;;;;;;5.20;2.72;;;13.10;99.90;;;;;;4976140;28;20816;-63
2022/06/01 04:40:42;;;;;;;7.78;2.60;;;13.20;99.90;;;;;;4976446;28;20073;-71
2022/06/01 04:43:08;;;;;;;7.57;2.58;;;13.10;99.90;;;;;;4976480;28;20046;-68
2022/06/01 04:45:34;;;;;;;6.43;2.70;;;13.00;99.90;;;;;;4976420;28;20054;-69
2022/06/01 04:48:00;;;;;;;6.72;2.97;;;13.00;99.90;;;;;;4976228;28;20572;-70
2022/06/01 04:50:26;;;;;;;2.67;2.30;;;13.00;99.90;;;;;;4976200;28;20047;-67
2022/06/01 04:52:52;;;;;;;4.30;2.45;;;13.00;99.90;;;;;;4976441;28;20133;-70
2022/06/01 04:55:17;;;;;;;3.60;2.30;;;13.10;99.90;;;;;;4975025;28;20050;-70
2022/06/01 04:57:43;;;;;;;4.65;2.40;;;13.20;99.90;;;;;;4972388;28;20070;-63
2022/06/01 05:00:10;;;;;;;8.13;2.70;;;13.30;99.90;;;;;;4974260;28;20042;-68
2022/06/01 05:02:37;;;;;;;6.53;2.53;;;13.40;99.90;;;;;;4957414;28;20130;-64
2022/06/01 05:05:03;;;;;;;3.90;2.80;;;13.50;99.90;;;;;;4956666;28;20054;-70
2022/06/01 05:07:29;;;;;;;9.10;2.58;;;13.70;99.90;;;;;;4956709;28;20455;-62
2022/06/01 05:09:55;;;;;;;4.20;3.08;;;13.80;99.90;;;;;;4956704;28;20105;-65
2022/06/01 05:12:21;;;;;;;5.90;2.90;;;13.90;99.90;;;;;;4956372;28;20043;-70
2022/06/01 05:14:46;;;;;;;6.05;2.78;;;13.80;99.90;;;;;;4966427;28;20054;-65
2022/06/01 05:17:12;;;;;;;9.00;2.97;;;13.90;99.90;;;;;;4974852;28;20042;-71
2022/06/01 05:19:38;;;;;;;3.95;2.50;;;13.80;99.90;;;;;;4975701;28;20545;-71
2022/06/01 05:22:04;;;;;;;7.65;2.88;;;13.80;99.90;;;;;;4975879;28;20046;-71
2022/06/01 05:24:30;;;;;;;3.78;2.58;;;13.90;99.90;;;;;;4975778;28;20051;-71
2022/06/01 05:26:56;;;;;;;3.45;2.63;;;13.90;99.90;;;;;;4975550;28;20121;-64
2022/06/01 05:29:22;;;;;;;4.70;2.50;;;14.00;99.90;;;;;;4975689;28;20038;-68
2022/06/01 05:31:49;;;;;;;4.85;2.67;;;14.10;99.90;;;;;;4974955;28;20038;-70
2022/06/01 05:34:15;;;;;;;4.18;2.45;;;14.20;99.90;;;;;;4974454;28;20073;-68
2022/06/01 05:36:41;;;;;;;6.68;2.30;;;14.30;99.90;;;;;;4974229;28;20038;-68
2022/06/01 05:39:06;;;;;;;7.55;2.85;;;14.50;99.90;;;;;;4975290;28;20053;-63
2022/06/01 05:41:33;;;;;;;3.63;2.28;;;14.50;99.90;;;;;;4973825;28;20042;-71
2022/06/01 05:43:59;;;;;;;6.80;2.85;;;14.50;99.90;;;;;;4975086;28;20407;-72
2022/06/01 05:46:26;;;;;;;6.72;2.47;;;14.50;99.90;;;;;;4975386;28;20046;-72
2022/06/01 05:48:52;;;;;;;6.88;2.97;;;14.50;99.90;;;;;;4975210;28;20514;-71
2022/06/01 05:51:18;;;;;;;4.45;2.45;;;14.60;99.90;;;;;;4974643;28;20694;-68
2022/06/01 05:53:44;;;;;;;7.07;2.33;;;14.70;99.90;;;;;;4974915;28;20129;-71
2022/06/01 05:56:10;;;;;;;5.53;2.35;;;14.90;99.90;;;;;;4974470;28;20121;-63
2022/06/01 05:58:36;;;;;;;7.55;2.50;;;15.20;99.90;;;;;;4974862;28;20046;-69
2022/06/01 06:01:06;;;;;;;5.47;2.28;;;15.30;99.90;;;;;;4974956;28;20035;-70
2022/06/01 06:03:33;;;;;;;6.18;2.13;;;15.50;99.90;;;;;;4974657;28;20058;-71
2022/06/01 06:06:13;;;;;;;5.00;2.80;;;15.60;99.90;;;;;;4974451;28;20034;-72
2022/06/01 06:08:41;;;;;;;8.45;2.70;;;15.50;99.90;;;;;;4974778;28;20451;-69
2022/06/01 06:11:06;;;;;;;6.50;2.63;;;15.40;99.90;;;;;;4974704;28;20070;-67
2022/06/01 06:13:36;;;;;;;8.00;3.13;;;15.40;99.90;;;;;;4974841;28;20089;-69
2022/06/01 06:16:03;;;;;;;3.55;2.60;;;15.40;99.90;;;;;;4974738;28;20102;-73
2022/06/01 06:18:30;;;;;;;3.60;2.30;;;15.40;99.90;;;;;;4974787;28;20039;-71
2022/06/01 06:20:56;;;;;;;6.65;2.83;;;15.40;99.90;;;;;;4974834;28;20053;-65
2022/06/01 06:23:21;;;;;;;3.17;2.10;;;15.40;99.90;;;;;;4974763;28;20434;-65
2022/06/01 06:25:48;;;;;;;4.25;2.30;;;15.40;99.90;;;;;;4974609;28;20046;-70
2022/06/01 06:28:14;;;;;;;9.13;2.72;;;15.50;99.90;;;;;;4974249;28;20137;-70
2022/06/01 06:30:41;;;;;;;5.22;2.50;;;15.70;99.90;;;;;;4974541;28;20130;-70
2022/06/01 06:33:07;;;;;;;4.55;2.60;;;15.80;99.90;;;;;;4974473;28;20050;-68
2022/06/01 06:35:34;;;;;;;10.00;2.83;;;15.80;99.90;;;;;;4974490;28;20031;-69
2022/06/01 06:38:01;;;;;;;5.00;2.72;;;16.20;99.90;;;;;;4974391;28;20038;-68
2022/06/01 06:40:28;;;;;;;3.47;2.30;;;16.60;99.90;;;;;;4969866;28;20081;-64
2022/06/01 06:42:54;;;;;;;7.05;2.40;;;16.80;99.90;;;;;;4968486;28;20545;-65
2022/06/01 06:45:20;;;;;;;2.58;2.10;;;16.80;99.90;;;;;;4970595;28;20042;-63
2022/06/01 06:47:50;;;;;;;3.67;2.03;;;16.70;99.90;;;;;;4971451;28;20066;-63
2022/06/01 06:50:21;;;;;;;5.40;2.17;;;16.60;99.90;;;;;;4971516;28;20034;-64
2022/06/01 06:52:47;;;;;;;7.30;2.55;;;16.70;99.90;;;;;;4973392;28;20070;-64
2022/06/01 06:55:14;;;;;;;6.13;2.38;;;17.00;99.90;;;;;;4974083;28;20074;-64
2022/06/01 06:57:41;;;;;;;7.03;2.78;;;17.00;99.90;;;;;;4973791;28;20515;-66
2022/06/01 07:00:09;;;;;;;10.23;2.67;;;17.00;99.90;;;;;;4974027;28;20122;-64
2022/06/01 07:02:35;;;;;;;6.47;2.42;;;16.90;99.90;;;;;;4974077;28;20066;-68
2022/06/01 07:05:03;;;;;;;4.32;2.65;;;16.90;99.90;;;;;;4974085;28;20515;-69
2022/06/01 07:07:29;;;;;;;4.90;2.00;;;16.90;99.90;;;;;;4973974;28;20073;-64
2022/06/01 07:09:55;;;;;;;6.38;2.65;;;16.80;99.90;;;;;;4973894;28;20082;-63
2022/06/01 07:12:21;;;;;;;4.57;2.22;;;16.80;99.90;;;;;;4973899;28;20039;-64
2022/06/01 07:14:46;;;;;;;4.97;2.00;;;16.60;99.90;;;;;;4973420;28;20050;-63
2022/06/01 07:17:12;;;;;;;6.82;1.92;;;16.70;99.90;;;;;;4974212;28;20057;-71
2022/06/01 07:19:38;;;;;;;3.38;2.20;;;16.50;99.90;;;;;;4973797;28;20376;-71
2022/06/01 07:22:04;;;;;;;6.00;2.92;;;16.50;99.90;;;;;;4972647;28;20053;-64
2022/06/01 07:24:30;;;;;;;3.15;1.90;;;16.60;99.90;;;;;;4973715;28;20101;-68
2022/06/01 07:26:59;;;;;;;3.42;2.47;;;16.60;99.90;;;;;;4973803;28;20458;-72
2022/06/01 07:29:24;;;;;;;6.90;2.72;;;16.60;99.90;;;;;;4973319;28;20506;-64
2022/06/01 07:31:50;;;;;;;5.68;2.45;;;16.60;99.90;;;;;;4973688;28;20050;-63
2022/06/01 07:34:17;;;;;;;7.95;1.70;;;16.70;99.90;;;;;;4972565;28;20055;-63
2022/06/01 07:36:45;;;;;;;2.83;1.75;;;16.90;99.90;;;;;;4973764;28;20189;-70
2022/06/01 07:44:53;;;;;;;11.90;2.45;;;17.50;99.90;;;;;;4977579;28;20045;-70
2022/06/01 07:47:20;;;;;;;8.75;2.25;;;17.50;99.90;;;;;;4977125;28;20529;-62
2022/06/01 07:49:46;;;;;;;2.72;1.90;;;17.20;99.90;;;;;;4977267;28;20047;-68
2022/06/01 07:52:13;;;;;;;4.72;1.83;;;17.10;99.90;;;;;;4977451;28;20043;-65
2022/06/01 07:54:40;;;;;;;4.80;1.50;;;17.00;99.90;;;;;;4977452;28;20045;-72
2022/06/01 07:57:07;;;;;;;5.57;1.80;;;16.90;99.90;;;;;;4977303;28;20057;-66
2022/06/01 07:59:33;;;;;;;5.18;1.92;;;16.90;99.90;;;;;;4977074;28;20043;-70
2022/06/01 08:01:59;;;;;;;9.77;2.80;;;16.80;99.90;;;;;;4976631;28;20047;-72
2022/06/01 08:04:25;;;;;;;26.75;5.10;;;17.00;99.90;;;;;;4977054;28;20046;-67
2022/06/01 08:06:51;;;;;;;17.42;4.93;;;17.20;99.90;;;;;;4977046;28;20137;-71
2022/06/01 08:09:17;;;;;;;7.65;2.90;;;17.20;99.90;;;;;;4977131;28;20561;-71
2022/06/01 08:14:27;;;;;;;4.88;2.10;;;17.20;99.90;;;;;;4977080;28;20081;-63
2022/06/01 08:16:53;;;;;;;4.70;1.90;;;17.20;99.90;;;;;;4976965;28;20043;-62
2022/06/01 08:19:19;;;;;;;3.83;1.42;;;17.10;99.90;;;;;;4976968;28;20101;-72
2022/06/01 08:21:45;;;;;;;6.57;3.58;;;17.00;99.90;;;;;;4976963;28;20125;-70
2022/06/01 08:24:11;;;;;;;9.40;2.60;;;16.70;99.90;;;;;;4976814;28;20035;-66
2022/06/01 08:26:38;;;;;;;5.55;2.60;;;16.50;99.90;;;;;;4976684;28;20053;-64
2022/06/01 08:29:04;;;;;;;7.80;3.10;;;16.30;99.90;;;;;;4976454;28;20507;-64
2022/06/01 08:31:30;;;;;;;11.05;2.90;;;16.10;99.90;;;;;;4976845;28;20427;-63
2022/06/01 08:33:57;;;;;;;6.45;3.28;;;;;;;;;;4976740;28;20537;-63
2022/06/01 08:36:23;;;;;;;5.72;3.13;;;16.10;99.90;;;;;;4976642;28;20505;-71
2022/06/01 08:38:49;;;;;;;5.97;3.00;;;16.30;99.90;;;;;;4976620;28;20038;-70
2022/06/01 08:41:19;;;;;;;4.93;2.63;;;16.50;99.90;;;;;;4976599;28;20150;-70
2022/06/01 08:43:57;;;;;;;5.75;2.63;;;16.50;99.90;;;;;;4976516;28;20074;-66
2022/06/01 08:46:25;;;;;;;5.20;2.50;;;16.60;99.90;;;;;;4976347;28;20042;-71
2022/06/01 08:49:02;;;;;;;6.45;2.75;;;16.60;99.90;;;;;;4976210;28;20066;-70
2022/06/01 08:51:30;;;;;;;4.57;2.90;;;16.40;99.90;;;;;;4976121;28;20047;-65
2022/06/01 08:53:58;;;;;;;5.03;3.00;;;16.20;99.90;;;;;;4976266;28;20487;-71
2022/06/01 08:56:45;;;;;;;5.68;3.13;;;16.20;99.90;;;;;;4976319;28;20077;-71
2022/06/01 08:59:29;;;;;;;6.57;2.90;;;16.20;99.90;;;;;;4976360;28;20046;-65
2022/06/01 09:02:17;;;;;;;5.22;3.05;;;16.20;99.90;;;;;;4967737;28;20139;-70
2022/06/01 09:05:40;;;;;;;9.43;3.53;;;16.20;99.90;;;;;;4973939;28;20097;-71
2022/06/01 09:08:09;;;;;;;12.93;5.78;;;16.10;99.90;;;;;;4916077;29;20676;-65
2022/06/01 09:11:11;;;;;;;15.48;6.22;;;16.10;99.90;;;;;;4973657;28;20054;-63
2022/06/01 09:13:51;;;;;;;8.57;4.25;;;16.10;99.90;;;;;;4975916;28;20395;-63
2022/06/01 09:16:38;;;;;;;7.45;3.40;;;16.10;99.90;;;;;;4975232;28;20518;-66
2022/06/01 09:19:08;;;;;;;7.63;3.70;;;16.10;99.90;;;;;;4975391;28;20058;-70
2022/06/01 09:24:32;;;;;;;10.38;3.65;;;16.00;99.90;;;;;;4975526;28;20565;-63
2022/06/01 09:27:07;;;;;;;6.63;4.13;;;16.00;99.90;;;;;;4975330;28;20050;-61
2022/06/01 09:29:43;;;;;;;4.63;3.25;;;16.00;99.90;;;;;;4974415;28;20074;-65
2022/06/01 09:32:33;;;;;;;5.25;3.17;;;16.00;99.90;;;;;;4975570;28;20070;-70
2022/06/01 09:35:11;;;;;;;7.32;3.47;;;16.10;99.90;;;;;;4974739;28;20057;-70
2022/06/01 09:37:46;;;;;;;6.38;3.53;;;16.20;99.90;;;;;;4974985;28;20070;-65
2022/06/01 09:40:24;;;;;;;5.30;3.50;;;16.20;99.90;;;;;;4975063;28;20051;-71
2022/06/01 09:42:52;;;;;;;8.35;4.10;;;16.20;99.90;;;;;;4975450;28;20038;-72
2022/06/01 09:45:27;;;;;;;7.30;3.47;;;16.20;99.90;;;;;;4974812;28;20133;-70
2022/06/01 09:48:08;;;;;;;10.48;4.47;;;16.10;99.90;;;;;;4974707;28;20059;-68
2022/06/01 09:50:35;;;;;;;7.28;4.03;;;16.20;99.90;;;;;;4970287;28;21205;-65
2022/06/01 09:53:13;;;;;;;6.40;4.00;;;16.20;99.90;;;;;;4964614;28;20050;-62
2022/06/01 09:56:01;;;;;;;5.40;3.25;;;16.30;99.90;;;;;;4974053;28;20035;-62
2022/06/01 10:07:05;;;;;;;5.22;3.80;;;16.30;99.90;;;;;;4973881;28;20046;-62
2022/06/01 10:09:34;;;;;;;10.30;4.63;;;16.30;99.90;;;;;;4987468;28;20051;-62
2022/06/01 10:12:24;;;;;;;7.87;4.37;;;16.30;99.90;;;;;;4987807;28;20051;-62
2022/06/01 10:14:55;;;;;;;6.97;4.05;;;16.20;99.90;;;;;;4972333;28;20545;-63
2022/06/01 10:17:33;;;;;;;8.00;4.00;;;16.30;99.90;;;;;;4973158;28;20070;-62
2022/06/01 10:20:06;;;;;;;7.38;4.70;;;16.10;99.90;;;;;;4972057;28;20082;-63
2022/06/01 10:22:34;;;;;;;12.93;5.10;;;16.10;99.90;;;;;;4972791;28;20057;-65
2022/06/01 10:25:42;;;;;;;10.00;4.20;;;16.00;99.90;;;;;;4972483;28;20043;-64
2022/06/01 10:28:22;;;;;;;8.50;4.32;;;16.00;99.90;;;;;;4969706;28;20050;-64
2022/06/01 10:30:53;;;;;;;9.23;4.70;;;16.10;99.90;;;;;;4971477;28;20402;-64
2022/06/01 10:33:28;;;;;;;5.72;4.10;;;16.30;99.90;;;;;;4973167;28;20043;-64
2022/06/01 10:35:59;;;;;;;5.63;4.47;;;16.30;99.90;;;;;;4972505;28;20530;-65
2022/06/01 10:38:35;;;;;;;69.68;51.95;;;16.10;99.90;;;;;;4972416;28;20526;-62
2022/06/01 10:41:14;;;;;;;18.30;10.70;;;16.30;99.90;;;;;;4972799;28;20042;-62
2022/06/01 10:43:48;;;;;;;8.82;4.20;;;16.30;99.90;;;;;;4973102;28;20038;-64
2022/06/01 10:46:40;;;;;;;10.52;4.35;;;16.10;99.90;;;;;;4973404;28;20768;-64
2022/06/01 10:49:23;;;;;;;6.57;4.05;;;16.00;99.90;;;;;;4972821;28;20072;-63
2022/06/01 10:52:21;;;;;;;6.65;3.67;;;16.00;99.90;;;;;;4971465;28;20050;-63
2022/06/01 10:54:50;;;;;;;7.90;3.50;;;16.20;99.90;;;;;;4971715;28;20049;-63
2022/06/01 10:57:20;;;;;;;4.95;3.13;;;16.30;99.90;;;;;;4970392;28;20039;-63
2022/06/01 10:59:48;;;;;;;7.13;2.53;;;16.40;99.90;;;;;;4986052;28;20034;-63
2022/06/01 11:02:39;;;;;;;5.25;2.40;;;16.20;99.90;;;;;;4970970;28;20129;-62
2022/06/01 11:05:13;;;;;;;3.97;2.05;;;16.20;99.90;;;;;;4972630;28;20525;-64
2022/06/01 11:08:00;;;;;;;5.40;2.10;;;16.30;99.90;;;;;;4971554;28;20039;-63
2022/06/01 11:10:48;;;;;;;4.32;2.00;;;16.30;99.90;;;;;;4970301;28;20062;-63
2022/06/01 11:13:49;;;;;;;3.15;2.13;;;16.30;99.90;;;;;;4970731;28;20039;-63
2022/06/01 11:16:44;;;;;;;4.25;1.80;;;16.40;99.90;;;;;;4975398;28;20066;-63
2022/06/01 11:19:29;;;;;;;2.97;1.88;;;16.40;99.90;;;;;;4969002;28;20038;-62
2022/06/01 11:22:36;;;;;;;2.22;1.83;;;16.50;99.90;;;;;;4973424;28;20094;-72
2022/06/01 11:25:19;;;;;;;3.65;1.70;;;16.80;99.90;;;;;;4968635;28;20031;-66
2022/06/01 11:28:27;;;;;;;2.00;1.60;;;16.90;99.90;;;;;;4965020;28;20051;-63
2022/06/01 11:31:12;;;;;;;3.10;1.67;;;17.20;99.90;;;;;;4959305;28;20066;-63
2022/06/01 11:33:44;;;;;;;5.88;2.15;;;17.20;99.90;;;;;;4975031;28;20042;-64
2022/06/01 11:36:28;;;;;;;5.68;1.65;;;;;;;;;;4975396;28;20409;-63
2022/06/01 11:39:03;;;;;;;2.28;1.45;;;17.40;99.90;;;;;;4975328;28;20054;-62
2022/06/01 11:41:34;;;;;;;2.05;1.20;;;17.60;99.90;;;;;;4975920;28;20495;-62
2022/06/01 11:44:17;;;;;;;3.55;1.48;;;17.80;99.90;;;;;;4989498;28;20097;-62
2022/06/01 11:46:53;;;;;;;4.07;1.15;;;18.10;99.90;;;;;;4973609;28;20047;-64
2022/06/01 11:49:37;;;;;;;3.55;1.58;;;18.00;99.90;;;;;;4975489;28;20058;-62
2022/06/01 11:52:40;;;;;;;1.85;1.42;;;18.20;99.90;;;;;;4977404;28;20113;-63
2022/06/01 11:55:10;;;;;;;2.10;1.25;;;18.60;99.90;;;;;;4977045;28;20086;-62
2022/06/01 11:57:50;;;;;;;4.00;1.58;;;18.80;99.90;;;;;;4977348;28;20043;-63
2022/06/01 12:00:26;;;;;;;2.63;1.45;;;19.10;99.90;;;;;;4977419;28;20182;-63
2022/06/01 12:02:53;;;;;;;2.30;1.05;;;18.80;99.90;;;;;;4977456;28;20042;-70
2022/06/01 12:05:28;;;;;;;3.30;1.20;;;19.10;99.90;;;;;;4976997;28;20047;-63
2022/06/01 12:08:06;;;;;;;2.90;1.27;;;19.30;99.90;;;;;;4976932;28;20055;-63
2022/06/01 12:11:03;;;;;;;1.30;0.98;;;19.20;99.90;;;;;;4976974;28;20039;-63
2022/06/01 12:13:31;;;;;;;1.45;0.95;;;19.10;99.90;;;;;;4969037;28;20093;-70
2022/06/01 12:16:09;;;;;;;1.40;0.88;;;19.10;99.90;;;;;;4976957;28;20038;-69
2022/06/01 12:18:35;;;;;;;1.60;0.90;;;19.10;99.90;;;;;;4976942;28;20042;-64
2022/06/01 12:21:36;;;;;;;2.00;1.20;;;19.40;99.90;;;;;;4976953;28;20030;-63
2022/06/01 12:30:02;;;;;;;1.33;0.88;;;19.70;99.90;;;;;;4976837;28;20042;-63
2022/06/01 12:32:29;;;;;;;3.28;0.90;;;19.50;99.90;;;;;;4976943;28;20046;-67
2022/06/01 12:35:09;;;;;;;1.65;0.98;;;19.30;99.90;;;;;;4976819;28;20043;-63
2022/06/01 12:37:50;;;;;;;1.77;1.05;;;19.30;99.90;;;;;;4976561;28;20042;-66
2022/06/01 12:40:21;;;;;;;1.42;0.75;;;19.30;99.90;;;;;;4976571;28;20038;-63
2022/06/01 12:42:55;;;;;;;1.50;0.88;;;19.60;99.90;;;;;;4976390;28;20047;-63
2022/06/01 12:45:28;;;;;;;3.40;0.90;;;19.60;99.90;;;;;;4973925;28;20093;-66
2022/06/01 12:47:59;;;;;;;1.50;0.88;;;19.60;99.90;;;;;;4976376;28;20058;-63
2022/06/01 12:50:28;;;;;;;2.13;1.35;;;19.60;99.90;;;;;;4976304;28;20121;-63
2022/06/01 12:53:13;;;;;;;3.17;1.15;;;20.00;99.90;;;;;;4976234;28;20047;-64
2022/06/01 12:55:40;;;;;;;1.77;0.90;;;19.90;99.90;;;;;;4976487;28;20054;-63
2022/06/01 12:58:20;;;;;;;2.92;1.05;;;20.00;99.90;;;;;;4974789;28;20042;-69
2022/06/01 13:00:55;;;;;;;4.10;1.33;;;20.00;99.90;;;;;;4984681;28;20051;-69
2022/06/01 13:03:29;;;;;;;2.90;1.05;;;20.10;99.90;;;;;;4988339;28;20458;-69
2022/06/01 13:05:59;;;;;;;1.35;0.90;;;19.70;99.90;;;;;;4972957;28;20042;-70
2022/06/01 13:08:32;;;;;;;1.52;0.90;;;;;;;;;;4972515;28;20057;-70
2022/06/01 13:11:22;;;;;;;1.42;1.00;;;19.80;99.90;;;;;;4973802;28;20062;-70
2022/06/01 13:13:53;;;;;;;2.67;1.53;;;19.80;99.90;;;;;;4972878;28;20051;-69
2022/06/01 13:16:24;;;;;;;3.55;1.35;;;19.80;99.90;;;;;;4973249;28;20038;-66
2022/06/01 13:19:25;;;;;;;3.60;2.05;;;19.80;99.90;;;;;;4973534;28;20042;-70
2022/06/01 13:21:55;;;;;;;8.02;2.92;;;19.60;99.90;;;;;;4982875;28;20065;-69
2022/06/01 13:24:25;;;;;;;4.13;2.70;;;19.90;99.90;;;;;;4970489;28;20062;-68
2022/06/01 13:26:57;;;;;;;5.32;2.20;;;20.00;99.90;;;;;;4953796;28;20047;-70
2022/06/01 13:29:26;;;;;;;5.45;3.13;;;19.80;99.90;;;;;;4954149;28;20065;-68
2022/06/01 13:32:01;;;;;;;9.18;3.78;;;19.70;99.90;;;;;;4954655;29;20467;-63
2022/06/01 13:34:45;;;;;;;7.05;3.35;;;19.40;99.90;;;;;;4955359;29;20514;-66
2022/06/01 13:37:26;;;;;;;6.38;3.03;;;19.40;99.90;;;;;;4953964;28;20081;-69
2022/06/01 13:40:26;;;;;;;4.60;2.97;;;19.50;99.90;;;;;;4954767;28;20491;-69
2022/06/01 13:43:00;;;;;;;4.70;3.20;;;19.50;99.90;;;;;;4950960;28;20118;-69
2022/06/01 13:45:37;;;;;;;6.32;3.40;;;19.50;99.90;;;;;;4954991;28;20182;-69